createdAt,value
2022-10-23T00:01:30.154Z,92.90
2022-10-23T00:04:06.487Z,92.70
2022-10-23T00:06:35.481Z,92.50
2022-10-23T00:09:04.322Z,91.20
2022-10-23T00:11:32.610Z,91.90
2022-10-23T00:14:01.362Z,91.10
2022-10-23T00:16:30.228Z,91.70
2022-10-23T00:18:58.556Z,91.70
2022-10-23T00:21:27.283Z,91.70
2022-10-23T00:23:55.012Z,91.40
2022-10-23T00:26:22.688Z,91.40
2022-10-23T00:28:51.794Z,91.50
2022-10-23T00:31:21.771Z,91.40
2022-10-23T00:33:49.579Z,91.20
2022-10-23T00:36:18.682Z,91.30
2022-10-23T00:38:46.622Z,91.40
2022-10-23T00:41:40.386Z,91.30
2022-10-23T00:44:23.038Z,91.20
2022-10-23T00:46:50.682Z,91.00
2022-10-23T00:49:18.364Z,91.10
2022-10-23T00:51:48.516Z,90.60
2022-10-23T00:54:23.952Z,90.50
2022-10-23T00:56:55.717Z,90.80
2022-10-23T00:59:24.201Z,90.70
2022-10-23T01:01:52.212Z,90.80
2022-10-23T01:04:20.426Z,90.80
2022-10-23T01:06:52.456Z,91.00
2022-10-23T01:09:41.262Z,90.90
2022-10-23T01:12:18.534Z,90.50
2022-10-23T01:14:56.126Z,90.60
2022-10-23T01:17:34.006Z,90.80
2022-10-23T01:20:15.251Z,90.70
2022-10-23T01:22:43.694Z,90.60
2022-10-23T01:25:32.174Z,90.40
2022-10-23T01:28:06.282Z,90.40
2022-10-23T01:30:34.800Z,90.40
2022-10-23T01:33:06.120Z,90.10
2022-10-23T01:35:33.682Z,90.10
2022-10-23T01:38:07.966Z,90.10
2022-10-23T01:40:38.396Z,90.00
2022-10-23T01:43:08.661Z,90.10
2022-10-23T01:45:44.237Z,90.20
2022-10-23T01:48:14.485Z,90.20
2022-10-23T01:50:43.791Z,90.00
2022-10-23T01:53:11.630Z,90.20
2022-10-23T01:58:09.621Z,90.00
2022-10-23T02:00:40.473Z,89.60
2022-10-23T02:03:08.745Z,89.60
2022-10-23T02:05:37.299Z,89.40
2022-10-23T02:08:05.303Z,89.10
2022-10-23T02:10:42.335Z,88.00
2022-10-23T02:13:13.351Z,87.90
2022-10-23T02:15:44.000Z,88.60
2022-10-23T02:18:30.411Z,84.90
2022-10-23T02:21:18.884Z,87.00
2022-10-23T02:23:56.117Z,87.40
2022-10-23T02:26:29.575Z,84.20
2022-10-23T02:29:08.570Z,86.10
2022-10-23T02:31:36.484Z,87.10
2022-10-23T02:34:04.103Z,83.20
2022-10-23T02:36:31.921Z,81.90
2022-10-23T02:38:59.621Z,84.60
2022-10-23T02:41:30.524Z,83.20
2022-10-23T02:44:02.923Z,84.10
2022-10-23T02:46:51.058Z,83.70
2022-10-23T02:49:24.686Z,84.00
2022-10-23T02:51:55.398Z,81.70
2022-10-23T02:54:32.326Z,81.90
2022-10-23T02:57:03.831Z,80.00
2022-10-23T02:59:54.144Z,80.40
2022-10-23T03:02:24.976Z,82.80
2022-10-23T03:04:55.331Z,83.00
2022-10-23T03:07:24.004Z,81.90
2022-10-23T03:09:51.547Z,80.40
2022-10-23T03:12:20.456Z,83.10
2022-10-23T03:14:48.243Z,82.60
2022-10-23T03:17:16.246Z,81.40
2022-10-23T03:19:44.920Z,82.80
2022-10-23T03:22:12.493Z,82.70
2022-10-23T03:24:40.308Z,79.40
2022-10-23T03:27:11.770Z,80.70
2022-10-23T03:29:40.224Z,79.20
2022-10-23T03:32:07.922Z,79.30
2022-10-23T03:34:36.387Z,79.30
2022-10-23T03:37:04.065Z,78.70
2022-10-23T03:39:31.787Z,78.10
2022-10-23T03:41:59.317Z,81.10
2022-10-23T03:44:27.817Z,79.90
2022-10-23T03:46:57.374Z,75.30
2022-10-23T03:49:25.564Z,80.00
2022-10-23T03:51:55.662Z,75.00
2022-10-23T03:54:24.905Z,76.10
2022-10-23T03:56:56.563Z,78.10
2022-10-23T03:59:26.029Z,74.00
2022-10-23T04:01:54.482Z,78.60
2022-10-23T04:04:22.726Z,72.50
2022-10-23T04:06:50.650Z,75.10
2022-10-23T04:09:19.255Z,75.00
2022-10-23T04:11:47.822Z,70.80
2022-10-23T04:14:16.359Z,73.20
2022-10-23T04:16:45.205Z,75.10
2022-10-23T04:19:13.016Z,70.90
2022-10-23T04:21:40.509Z,75.70
2022-10-23T04:24:08.730Z,73.10
2022-10-23T04:26:36.648Z,73.80
2022-10-23T04:29:04.508Z,73.60
2022-10-23T04:31:33.122Z,76.70
2022-10-23T04:34:01.634Z,71.40
2022-10-23T04:36:29.514Z,72.90
2022-10-23T04:38:57.294Z,76.80
2022-10-23T04:41:24.927Z,74.60
2022-10-23T04:43:52.550Z,76.30
2022-10-23T04:46:21.449Z,73.60
2022-10-23T04:48:49.198Z,74.20
2022-10-23T04:51:16.826Z,69.10
2022-10-23T04:53:44.511Z,68.20
2022-10-23T04:56:14.353Z,67.20
2022-10-23T04:58:43.073Z,62.20
2022-10-23T05:01:11.073Z,66.30
2022-10-23T05:03:39.204Z,68.00
2022-10-23T05:08:49.032Z,64.80
2022-10-23T05:11:16.670Z,68.20
2022-10-23T05:13:44.272Z,62.40
2022-10-23T05:16:14.586Z,67.20
2022-10-23T05:18:49.348Z,61.80
2022-10-23T05:21:21.366Z,63.60
2022-10-23T05:23:50.247Z,66.80
2022-10-23T05:26:18.985Z,70.00
2022-10-23T05:28:47.011Z,71.20
2022-10-23T05:31:16.405Z,62.00
2022-10-23T05:33:44.308Z,66.60
2022-10-23T05:36:12.770Z,65.30
2022-10-23T05:38:40.857Z,64.60
2022-10-23T05:41:10.726Z,61.70
2022-10-23T05:43:45.108Z,60.20
2022-10-23T05:46:12.834Z,60.30
2022-10-23T05:48:40.696Z,63.00
2022-10-23T05:51:09.779Z,61.20
2022-10-23T05:53:40.227Z,62.20
2022-10-23T05:56:11.002Z,61.70
2022-10-23T05:58:39.621Z,59.40
2022-10-23T06:01:08.669Z,65.50
2022-10-23T06:03:38.434Z,61.40
2022-10-23T06:06:20.899Z,64.10
2022-10-23T06:08:59.502Z,62.00
2022-10-23T06:11:27.686Z,64.20
2022-10-23T06:16:25.778Z,65.40
2022-10-23T06:18:53.882Z,68.50
2022-10-23T06:21:21.638Z,64.90
2022-10-23T06:23:49.224Z,69.20
2022-10-23T06:26:21.571Z,68.10
2022-10-23T06:28:49.500Z,67.00
2022-10-23T06:31:20.866Z,64.00
2022-10-23T06:33:48.500Z,67.00
2022-10-23T06:36:16.161Z,65.90
2022-10-23T06:38:43.919Z,64.10
2022-10-23T06:41:15.664Z,59.80
2022-10-23T06:43:44.039Z,63.10
2022-10-23T06:46:12.355Z,62.60
2022-10-23T06:48:41.734Z,64.30
2022-10-23T06:51:13.300Z,63.50
2022-10-23T06:53:42.417Z,69.60
2022-10-23T06:56:11.076Z,66.80
2022-10-23T06:58:40.376Z,67.00
2022-10-23T07:01:09.812Z,68.20
2022-10-23T07:03:38.213Z,67.30
2022-10-23T07:06:07.218Z,69.80
2022-10-23T07:08:34.952Z,69.50
2022-10-23T07:11:09.424Z,60.40
2022-10-23T07:13:38.816Z,63.80
2022-10-23T07:16:14.119Z,64.50
2022-10-23T07:18:41.718Z,63.80
2022-10-23T07:21:10.274Z,64.60
2022-10-23T07:23:38.019Z,67.50
2022-10-23T07:26:08.465Z,64.90
2022-10-23T07:28:36.826Z,65.60
2022-10-23T07:31:10.007Z,64.20
2022-10-23T07:33:38.725Z,62.00
2022-10-23T07:36:07.914Z,62.30
2022-10-23T07:38:36.948Z,63.70
2022-10-23T07:41:08.872Z,62.80
2022-10-23T07:43:39.334Z,63.10
2022-10-23T07:46:08.906Z,65.30
2022-10-23T07:48:38.079Z,65.40
2022-10-23T07:51:10.994Z,65.60
2022-10-23T07:53:38.921Z,60.50
2022-10-23T07:56:21.857Z,60.00
2022-10-23T07:58:54.354Z,64.40
2022-10-23T08:01:43.313Z,66.70
2022-10-23T08:04:11.760Z,64.50
2022-10-23T08:06:39.826Z,63.50
2022-10-23T08:09:07.938Z,63.50
2022-10-23T08:11:38.444Z,62.30
2022-10-23T08:14:07.245Z,61.90
2022-10-23T08:16:38.053Z,62.70
2022-10-23T08:19:07.272Z,61.90
2022-10-23T08:21:35.138Z,61.20
2022-10-23T08:24:03.354Z,60.20
2022-10-23T08:26:32.133Z,62.00
2022-10-23T08:29:00.322Z,60.50
2022-10-23T08:31:28.124Z,62.90
2022-10-23T08:33:56.850Z,59.30
2022-10-23T08:36:26.964Z,59.50
2022-10-23T08:38:56.435Z,63.40
2022-10-23T08:41:32.633Z,62.10
2022-10-23T08:44:28.782Z,62.40
2022-10-23T08:47:05.033Z,59.70
2022-10-23T08:49:34.032Z,60.00
2022-10-23T08:52:04.137Z,61.60
2022-10-23T08:54:54.874Z,59.90
2022-10-23T08:57:23.874Z,58.80
2022-10-23T09:00:14.280Z,64.80
2022-10-23T09:02:45.137Z,65.00
2022-10-23T09:05:33.488Z,65.70
2022-10-23T09:08:09.801Z,64.00
2022-10-23T09:10:56.831Z,63.10
2022-10-23T09:13:42.606Z,59.90
2022-10-23T09:16:31.062Z,61.40
2022-10-23T09:18:59.541Z,65.30
2022-10-23T09:21:30.642Z,64.00
2022-10-23T09:23:58.189Z,63.20
2022-10-23T09:26:25.832Z,63.80
2022-10-23T09:28:59.285Z,67.00
2022-10-23T09:31:26.918Z,66.60
2022-10-23T09:33:58.409Z,65.80
2022-10-23T09:36:29.444Z,66.00
2022-10-23T09:38:59.199Z,67.50
2022-10-23T09:41:31.730Z,65.80
2022-10-23T09:44:09.002Z,62.30
2022-10-23T09:46:44.345Z,64.20
2022-10-23T09:49:19.169Z,63.20
2022-10-23T09:52:05.367Z,60.60
2022-10-23T09:54:37.241Z,63.20
2022-10-23T09:57:23.301Z,63.90
2022-10-23T09:59:52.173Z,66.40
2022-10-23T10:02:30.369Z,65.30
2022-10-23T10:04:58.469Z,65.00
2022-10-23T10:07:33.386Z,61.30
2022-10-23T10:10:04.586Z,63.40
2022-10-23T10:12:51.757Z,65.50
2022-10-23T10:15:28.574Z,64.80
2022-10-23T10:18:15.915Z,65.40
2022-10-23T10:20:56.002Z,66.00
2022-10-23T10:23:29.505Z,65.80
2022-10-23T10:25:57.885Z,65.50
2022-10-23T10:28:29.177Z,66.70
2022-10-23T10:31:00.468Z,66.50
2022-10-23T10:33:34.604Z,65.90
2022-10-23T10:36:17.795Z,65.90
2022-10-23T10:38:50.628Z,66.20
2022-10-23T10:41:21.508Z,66.40
2022-10-23T10:43:58.340Z,66.40
2022-10-23T10:46:40.354Z,66.50
2022-10-23T10:49:19.472Z,67.00
2022-10-23T10:51:53.282Z,66.60
2022-10-23T10:54:40.225Z,67.10
2022-10-23T10:57:14.571Z,67.10
2022-10-23T10:59:45.618Z,67.10
2022-10-23T11:02:19.258Z,66.40
2022-10-23T11:04:51.443Z,66.80
2022-10-23T11:07:25.179Z,66.60
2022-10-23T11:09:52.936Z,66.90
2022-10-23T11:12:23.143Z,67.00
2022-10-23T11:14:50.910Z,67.40
2022-10-23T11:17:25.660Z,67.70
2022-10-23T11:19:53.186Z,67.90
2022-10-23T11:22:20.856Z,68.20
2022-10-23T11:25:03.684Z,68.50
2022-10-23T11:27:37.706Z,68.90
2022-10-23T11:30:20.623Z,69.30
2022-10-23T11:32:49.307Z,69.30
2022-10-23T11:35:20.405Z,69.40
2022-10-23T11:37:58.366Z,69.90
2022-10-23T11:40:26.361Z,70.00
2022-10-23T11:42:54.774Z,70.40
2022-10-23T11:45:33.181Z,70.20
2022-10-23T11:48:05.279Z,70.40
2022-10-23T11:51:01.537Z,70.70
2022-10-23T11:53:31.848Z,70.80
2022-10-23T11:56:20.563Z,71.00
2022-10-23T11:58:55.769Z,71.10
2022-10-23T12:01:33.848Z,71.20
2022-10-23T12:04:07.859Z,71.40
2022-10-23T12:06:43.719Z,71.40
2022-10-23T12:09:29.556Z,71.50
2022-10-23T12:12:03.077Z,71.50
2022-10-23T12:14:33.888Z,71.50
2022-10-23T12:17:02.292Z,71.60
2022-10-23T12:19:31.140Z,71.70
2022-10-23T12:22:00.316Z,71.70
2022-10-23T12:24:39.572Z,72.00
2022-10-23T12:27:07.139Z,71.90
2022-10-23T12:29:43.994Z,72.00
2022-10-23T12:32:26.363Z,72.00
2022-10-23T12:35:12.427Z,72.00
2022-10-23T12:37:46.066Z,72.20
2022-10-23T12:40:13.651Z,72.40
2022-10-23T12:42:43.036Z,72.60
2022-10-23T12:45:14.789Z,72.80
2022-10-23T12:47:43.788Z,73.00
2022-10-23T12:50:26.047Z,73.30
2022-10-23T12:53:06.279Z,73.50
2022-10-23T12:55:56.921Z,73.70
2022-10-23T12:58:31.573Z,73.80
2022-10-23T13:01:04.294Z,74.00
2022-10-23T13:03:46.776Z,74.30
2022-10-23T13:08:59.735Z,74.50
2022-10-23T13:11:34.204Z,74.70
2022-10-23T13:14:02.265Z,74.70
2022-10-23T13:16:29.832Z,74.70
2022-10-23T13:18:57.295Z,74.60
2022-10-23T13:21:26.885Z,75.60
2022-10-23T13:23:55.470Z,74.80
2022-10-23T13:26:33.168Z,75.00
2022-10-23T13:29:04.721Z,75.00
2022-10-23T13:31:36.819Z,75.00
2022-10-23T13:34:06.503Z,75.30
2022-10-23T13:36:40.498Z,75.60
2022-10-23T13:39:11.028Z,75.50
2022-10-23T13:41:46.615Z,75.70
2022-10-23T13:44:15.686Z,75.90
2022-10-23T13:46:43.603Z,76.10
2022-10-23T13:49:11.200Z,76.20
2022-10-23T13:51:55.175Z,76.30
2022-10-23T13:54:24.547Z,76.70
2022-10-23T13:56:52.567Z,76.80
2022-10-23T13:59:20.809Z,76.90
2022-10-23T14:01:49.684Z,77.00
2022-10-23T14:04:18.198Z,77.50
2022-10-23T14:06:46.578Z,77.40
2022-10-23T14:09:15.632Z,77.50
2022-10-23T14:11:43.593Z,77.60
2022-10-23T14:14:11.156Z,77.70
2022-10-23T14:16:39.023Z,77.80
2022-10-23T14:19:06.637Z,78.00
2022-10-23T14:21:34.154Z,78.10
2022-10-23T14:24:01.744Z,78.30
2022-10-23T14:26:30.553Z,78.70
2022-10-23T14:29:04.488Z,78.60
2022-10-23T14:31:38.641Z,79.50
2022-10-23T14:34:06.161Z,79.60
2022-10-23T14:36:43.473Z,80.10
2022-10-23T14:39:18.844Z,80.90
2022-10-23T14:41:46.498Z,81.60
2022-10-23T14:44:14.022Z,82.50
2022-10-23T14:46:41.818Z,81.90
2022-10-23T14:49:10.178Z,81.70
2022-10-23T14:51:37.773Z,81.70
2022-10-23T14:54:06.695Z,82.00
2022-10-23T14:56:36.012Z,81.90
2022-10-23T14:59:04.397Z,81.90
2022-10-23T15:01:33.801Z,81.90
2022-10-23T15:04:01.449Z,82.30
2022-10-23T15:06:29.003Z,82.90
2022-10-23T15:08:56.669Z,82.50
2022-10-23T15:11:25.082Z,83.10
2022-10-23T15:13:53.124Z,83.10
2022-10-23T15:16:20.975Z,83.70
2022-10-23T15:18:49.549Z,83.60
2022-10-23T15:21:18.887Z,84.10
2022-10-23T15:23:47.275Z,83.50
2022-10-23T15:26:22.766Z,83.60
2022-10-23T15:28:57.550Z,83.70
2022-10-23T15:31:31.115Z,83.60
2022-10-23T15:33:59.580Z,84.40
2022-10-23T15:36:27.615Z,84.40
2022-10-23T15:38:55.393Z,84.40
2022-10-23T15:41:27.582Z,84.30
2022-10-23T15:43:55.360Z,84.90
2022-10-23T15:46:22.845Z,84.60
2022-10-23T15:48:50.426Z,85.00
2022-10-23T15:51:17.977Z,85.30
2022-10-23T15:53:45.481Z,85.30
2022-10-23T15:56:13.123Z,85.40
2022-10-23T15:58:40.901Z,85.60
2022-10-23T16:01:08.657Z,86.00
2022-10-23T16:03:37.619Z,87.00
2022-10-23T16:06:06.881Z,86.80
2022-10-23T16:08:34.446Z,87.30
2022-10-23T16:11:02.421Z,88.00
2022-10-23T16:13:29.926Z,87.30
2022-10-23T16:15:57.920Z,86.80
2022-10-23T16:18:25.489Z,86.20
2022-10-23T16:20:55.305Z,86.30
2022-10-23T16:23:23.904Z,85.60
2022-10-23T16:25:51.479Z,85.30
2022-10-23T16:28:19.036Z,84.80
2022-10-23T16:30:46.829Z,84.50
2022-10-23T16:33:14.484Z,84.20
2022-10-23T16:35:42.330Z,84.20
2022-10-23T16:38:09.831Z,83.90
2022-10-23T16:40:38.227Z,84.70
2022-10-23T16:43:05.824Z,83.80
2022-10-23T16:45:37.019Z,83.90
2022-10-23T16:48:06.283Z,84.20
2022-10-23T16:50:34.400Z,84.00
2022-10-23T16:53:02.203Z,83.90
2022-10-23T16:55:29.706Z,83.70
2022-10-23T16:57:59.982Z,83.80
2022-10-23T17:00:35.443Z,83.70
2022-10-23T17:03:04.049Z,83.70
2022-10-23T17:05:35.294Z,83.40
2022-10-23T17:08:02.819Z,83.20
2022-10-23T17:10:30.380Z,83.20
2022-10-23T17:12:58.094Z,83.30
2022-10-23T17:15:25.682Z,83.20
2022-10-23T17:17:53.352Z,83.10
2022-10-23T17:20:21.006Z,83.00
2022-10-23T17:22:48.545Z,83.00
2022-10-23T17:25:16.756Z,82.80
2022-10-23T17:27:46.730Z,82.60
2022-10-23T17:30:17.883Z,82.70
2022-10-23T17:32:46.149Z,82.50
2022-10-23T17:35:14.231Z,82.40
2022-10-23T17:37:42.088Z,82.40
2022-10-23T17:40:09.838Z,82.30
2022-10-23T17:42:37.355Z,82.30
2022-10-23T17:45:05.215Z,82.40
2022-10-23T17:47:33.033Z,82.20
2022-10-23T17:50:00.838Z,82.20
2022-10-23T17:52:28.647Z,82.20
2022-10-23T17:54:56.343Z,82.20
2022-10-23T17:59:56.540Z,82.20
2022-10-23T18:02:24.591Z,82.40
2022-10-23T18:04:52.260Z,82.40
2022-10-23T18:07:20.011Z,82.40
2022-10-23T18:09:48.549Z,82.50
2022-10-23T18:12:16.252Z,82.50
2022-10-23T18:14:44.362Z,82.50
2022-10-23T18:17:13.072Z,82.70
2022-10-23T18:19:40.596Z,82.50
2022-10-23T18:22:08.270Z,82.50
2022-10-23T18:24:38.208Z,82.70
2022-10-23T18:27:05.746Z,82.50
2022-10-23T18:29:33.369Z,82.80
2022-10-23T18:32:00.958Z,82.90
2022-10-23T18:34:28.470Z,83.20
2022-10-23T18:36:56.133Z,83.20
2022-10-23T18:39:24.848Z,83.50
2022-10-23T18:41:54.277Z,83.40
2022-10-23T18:44:23.017Z,83.10
2022-10-23T18:46:51.175Z,83.20
2022-10-23T18:49:19.251Z,84.50
2022-10-23T18:51:46.777Z,83.70
2022-10-23T18:54:15.520Z,83.50
2022-10-23T18:56:43.107Z,83.60
2022-10-23T18:59:12.316Z,83.90
2022-10-23T19:01:39.992Z,83.50
2022-10-23T19:04:08.343Z,84.10
2022-10-23T19:06:36.482Z,84.20
2022-10-23T19:09:06.362Z,83.90
2022-10-23T19:11:33.889Z,84.20
2022-10-23T19:14:01.431Z,84.20
2022-10-23T19:16:28.934Z,84.90
2022-10-23T19:19:03.388Z,84.50
2022-10-23T19:21:33.429Z,84.70
2022-10-23T19:24:02.924Z,84.50
2022-10-23T19:26:31.106Z,84.00
2022-10-23T19:28:59.026Z,84.40
2022-10-23T19:31:26.870Z,84.00
2022-10-23T19:33:55.947Z,84.30
2022-10-23T19:36:24.283Z,84.10
2022-10-23T19:38:51.925Z,84.30
2022-10-23T19:41:19.624Z,84.70
2022-10-23T19:43:47.108Z,84.70
2022-10-23T19:46:15.318Z,85.30
2022-10-23T19:48:44.682Z,85.30
2022-10-23T19:51:15.824Z,85.50
2022-10-23T19:53:43.757Z,86.00
2022-10-23T19:56:12.300Z,86.20
2022-10-23T19:58:41.263Z,86.10
2022-10-23T20:01:13.546Z,85.90
2022-10-23T20:03:42.034Z,86.00
2022-10-23T20:06:10.804Z,86.60
2022-10-23T20:08:38.339Z,86.50
2022-10-23T20:11:06.234Z,86.60
2022-10-23T20:13:34.000Z,87.40
2022-10-23T20:16:01.757Z,87.30
2022-10-23T20:18:29.333Z,87.40
2022-10-23T20:20:57.595Z,87.20
2022-10-23T20:23:25.133Z,87.10
2022-10-23T20:25:52.663Z,87.00
2022-10-23T20:28:21.948Z,87.00
2022-10-23T20:30:49.405Z,86.90
2022-10-23T20:33:17.212Z,86.70
2022-10-23T20:35:44.846Z,86.70
2022-10-23T20:38:12.449Z,86.90
2022-10-23T20:40:39.979Z,86.80
2022-10-23T20:43:07.437Z,87.30
2022-10-23T20:45:34.936Z,87.70
2022-10-23T20:48:02.659Z,87.20
2022-10-23T20:50:31.252Z,87.30
2022-10-23T20:52:59.674Z,87.40
2022-10-23T20:55:27.218Z,87.60
2022-10-23T20:57:55.360Z,88.10
2022-10-23T21:00:22.935Z,87.50
2022-10-23T21:02:52.646Z,88.10
2022-10-23T21:05:20.446Z,88.10
2022-10-23T21:07:48.901Z,88.20
2022-10-23T21:10:16.462Z,88.20
2022-10-23T21:12:44.215Z,88.20
2022-10-23T21:15:12.936Z,88.60
2022-10-23T21:17:41.216Z,88.70
2022-10-23T21:20:08.942Z,88.40
2022-10-23T21:22:36.513Z,88.50
2022-10-23T21:25:04.167Z,88.60
2022-10-23T21:27:31.672Z,88.90
2022-10-23T21:29:59.153Z,88.20
2022-10-23T21:32:26.748Z,88.70
2022-10-23T21:34:56.179Z,88.90
2022-10-23T21:37:25.310Z,88.70
2022-10-23T21:39:52.901Z,88.20
2022-10-23T21:42:20.474Z,88.10
2022-10-23T21:44:48.030Z,88.10
2022-10-23T21:47:15.489Z,88.00
2022-10-23T21:49:43.081Z,87.60
2022-10-23T21:52:10.573Z,87.80
2022-10-23T21:54:38.199Z,87.60
2022-10-23T21:57:05.792Z,87.70
2022-10-23T21:59:35.939Z,87.50
2022-10-23T22:02:04.049Z,87.60
2022-10-23T22:04:31.743Z,87.50
2022-10-23T22:06:59.264Z,87.60
2022-10-23T22:09:27.604Z,87.80
2022-10-23T22:11:55.710Z,88.00
2022-10-23T22:14:23.677Z,88.10
2022-10-23T22:16:52.609Z,87.90
2022-10-23T22:19:21.698Z,87.80
2022-10-23T22:21:50.167Z,87.80
2022-10-23T22:24:17.966Z,87.60
2022-10-23T22:26:50.087Z,87.80
2022-10-23T22:29:19.454Z,87.80
2022-10-23T22:31:48.858Z,88.10
2022-10-23T22:34:52.375Z,87.90
2022-10-23T22:37:21.477Z,87.80
2022-10-23T22:39:52.674Z,88.00
2022-10-23T22:42:20.967Z,88.30
2022-10-23T22:44:48.499Z,88.60
2022-10-23T22:47:16.588Z,88.90
2022-10-23T22:49:44.065Z,88.60
2022-10-23T22:52:11.965Z,88.70
2022-10-23T22:54:41.043Z,88.50
2022-10-23T22:57:08.531Z,88.90
2022-10-23T22:59:36.156Z,88.80
2022-10-23T23:02:03.747Z,89.00
2022-10-23T23:04:39.254Z,89.40
2022-10-23T23:07:08.040Z,89.20
2022-10-23T23:09:43.072Z,89.70
2022-10-23T23:12:12.625Z,89.90
2022-10-23T23:14:40.564Z,89.30
2022-10-23T23:17:08.370Z,89.40
2022-10-23T23:19:37.025Z,89.60
2022-10-23T23:22:05.033Z,89.90
2022-10-23T23:24:33.375Z,89.40
2022-10-23T23:27:01.146Z,89.10
2022-10-23T23:29:30.500Z,89.60
2022-10-23T23:31:58.366Z,90.10
2022-10-23T23:34:26.020Z,90.10
2022-10-23T23:36:53.471Z,90.20
2022-10-23T23:39:21.072Z,90.30
2022-10-23T23:41:49.296Z,90.10
2022-10-23T23:44:16.782Z,90.20
2022-10-23T23:46:44.300Z,90.20
2022-10-23T23:49:11.828Z,90.50
2022-10-23T23:51:39.596Z,90.50
2022-10-23T23:54:07.162Z,90.70
2022-10-23T23:56:34.703Z,90.90
2022-10-23T23:59:02.269Z,90.70
